sensor_id;sensor_type;location;lat;lon;timestamp;temperature;humidity
9723;DHT22;4900;49.306;8.500;2023-07-28T00:00:42;20.99;77.60
9723;DHT22;4900;49.306;8.500;2023-07-28T00:03:08;21.02;77.67
9723;DHT22;4900;49.306;8.500;2023-07-28T00:05:33;20.99;77.68
9723;DHT22;4900;49.306;8.500;2023-07-28T00:07:59;21.00;77.55
9723;DHT22;4900;49.306;8.500;2023-07-28T00:10:24;20.99;77.54
9723;DHT22;4900;49.306;8.500;2023-07-28T00:12:50;21.00;77.70
9723;DHT22;4900;49.306;8.500;2023-07-28T00:15:15;21.00;77.63
9723;DHT22;4900;49.306;8.500;2023-07-28T00:17:41;21.00;77.67
9723;DHT22;4900;49.306;8.500;2023-07-28T00:20:08;21.03;77.70
9723;DHT22;4900;49.306;8.500;2023-07-28T00:22:34;20.98;77.73
9723;DHT22;4900;49.306;8.500;2023-07-28T00:24:59;21.00;77.80
9723;DHT22;4900;49.306;8.500;2023-07-28T00:27:25;21.00;77.78
9723;DHT22;4900;49.306;8.500;2023-07-28T00:29:50;21.00;77.81
9723;DHT22;4900;49.306;8.500;2023-07-28T00:32:16;21.02;77.84
9723;DHT22;4900;49.306;8.500;2023-07-28T00:34:41;20.99;77.87
9723;DHT22;4900;49.306;8.500;2023-07-28T00:37:07;21.02;77.87
9723;DHT22;4900;49.306;8.500;2023-07-28T00:39:32;21.00;78.04
9723;DHT22;4900;49.306;8.500;2023-07-28T00:41:58;20.99;78.07
9723;DHT22;4900;49.306;8.500;2023-07-28T00:44:23;20.98;78.09
9723;DHT22;4900;49.306;8.500;2023-07-28T00:46:48;21.03;78.06
9723;DHT22;4900;49.306;8.500;2023-07-28T00:49:14;21.00;78.14
9723;DHT22;4900;49.306;8.500;2023-07-28T00:51:39;21.02;78.23
9723;DHT22;4900;49.306;8.500;2023-07-28T00:54:05;21.00;78.10
9723;DHT22;4900;49.306;8.500;2023-07-28T00:56:31;21.00;78.03
9723;DHT22;4900;49.306;8.500;2023-07-28T00:58:57;21.02;77.99
9723;DHT22;4900;49.306;8.500;2023-07-28T01:01:23;21.00;77.86
9723;DHT22;4900;49.306;8.500;2023-07-28T01:03:50;21.03;77.91
9723;DHT22;4900;49.306;8.500;2023-07-28T01:06:26;21.02;77.96
9723;DHT22;4900;49.306;8.500;2023-07-28T01:11:23;20.99;77.89
9723;DHT22;4900;49.306;8.500;2023-07-28T01:13:48;21.00;77.84
9723;DHT22;4900;49.306;8.500;2023-07-28T01:16:14;21.02;77.76
9723;DHT22;4900;49.306;8.500;2023-07-28T01:18:40;21.00;77.72
9723;DHT22;4900;49.306;8.500;2023-07-28T01:21:08;20.96;77.81
9723;DHT22;4900;49.306;8.500;2023-07-28T01:23:42;20.93;77.86
9723;DHT22;4900;49.306;8.500;2023-07-28T01:26:12;20.95;77.82
9723;DHT22;4900;49.306;8.500;2023-07-28T01:28:39;20.98;77.69
9723;DHT22;4900;49.306;8.500;2023-07-28T01:31:07;20.95;77.63
9723;DHT22;4900;49.306;8.500;2023-07-28T01:33:33;20.95;77.63
9723;DHT22;4900;49.306;8.500;2023-07-28T01:35:59;20.92;77.69
9723;DHT22;4900;49.306;8.500;2023-07-28T01:38:26;20.91;77.54
9723;DHT22;4900;49.306;8.500;2023-07-28T01:40:52;20.92;77.42
9723;DHT22;4900;49.306;8.500;2023-07-28T01:43:18;20.91;77.59
9723;DHT22;4900;49.306;8.500;2023-07-28T01:45:43;20.88;77.53
9723;DHT22;4900;49.306;8.500;2023-07-28T01:48:08;20.83;77.76
9723;DHT22;4900;49.306;8.500;2023-07-28T01:50:37;20.86;77.68
9723;DHT22;4900;49.306;8.500;2023-07-28T01:53:06;20.86;77.66
9723;DHT22;4900;49.306;8.500;2023-07-28T01:55:32;20.83;77.66
9723;DHT22;4900;49.306;8.500;2023-07-28T01:57:59;20.88;77.60
9723;DHT22;4900;49.306;8.500;2023-07-28T02:00:26;20.88;77.68
9723;DHT22;4900;49.306;8.500;2023-07-28T02:02:52;20.82;77.65
9723;DHT22;4900;49.306;8.500;2023-07-28T02:05:18;20.85;77.74
9723;DHT22;4900;49.306;8.500;2023-07-28T02:07:43;20.83;77.71
9723;DHT22;4900;49.306;8.500;2023-07-28T02:10:09;20.81;77.96
9723;DHT22;4900;49.306;8.500;2023-07-28T02:12:38;20.78;77.83
9723;DHT22;4900;49.306;8.500;2023-07-28T02:15:07;20.79;77.81
9723;DHT22;4900;49.306;8.500;2023-07-28T02:17:33;20.78;77.81
9723;DHT22;4900;49.306;8.500;2023-07-28T02:19:58;20.76;77.78
9723;DHT22;4900;49.306;8.500;2023-07-28T02:22:24;20.79;77.77
9723;DHT22;4900;49.306;8.500;2023-07-28T02:24:49;20.83;77.50
9723;DHT22;4900;49.306;8.500;2023-07-28T02:27:14;20.81;77.53
9723;DHT22;4900;49.306;8.500;2023-07-28T02:29:40;20.81;77.46
9723;DHT22;4900;49.306;8.500;2023-07-28T02:32:07;20.72;77.56
9723;DHT22;4900;49.306;8.500;2023-07-28T02:34:33;20.76;77.46
9723;DHT22;4900;49.306;8.500;2023-07-28T02:36:58;20.81;77.29
9723;DHT22;4900;49.306;8.500;2023-07-28T02:39:23;20.76;77.29
9723;DHT22;4900;49.306;8.500;2023-07-28T02:41:50;20.65;77.49
9723;DHT22;4900;49.306;8.500;2023-07-28T02:44:15;20.69;77.38
9723;DHT22;4900;49.306;8.500;2023-07-28T02:46:40;20.76;77.15
9723;DHT22;4900;49.306;8.500;2023-07-28T02:49:06;20.72;77.09
9723;DHT22;4900;49.306;8.500;2023-07-28T02:51:32;20.78;77.01
9723;DHT22;4900;49.306;8.500;2023-07-28T02:53:59;20.82;76.86
9723;DHT22;4900;49.306;8.500;2023-07-28T02:56:25;20.75;77.01
9723;DHT22;4900;49.306;8.500;2023-07-28T02:58:50;20.75;77.00
9723;DHT22;4900;49.306;8.500;2023-07-28T03:01:16;20.72;77.11
9723;DHT22;4900;49.306;8.500;2023-07-28T03:03:42;20.74;77.04
9723;DHT22;4900;49.306;8.500;2023-07-28T03:06:08;20.72;76.97
9723;DHT22;4900;49.306;8.500;2023-07-28T03:08:33;20.76;76.89
9723;DHT22;4900;49.306;8.500;2023-07-28T03:10:59;20.74;76.90
9723;DHT22;4900;49.306;8.500;2023-07-28T03:13:24;20.76;76.81
9723;DHT22;4900;49.306;8.500;2023-07-28T03:15:50;20.79;76.79
9723;DHT22;4900;49.306;8.500;2023-07-28T03:18:15;20.79;76.70
9723;DHT22;4900;49.306;8.500;2023-07-28T03:20:40;20.78;76.55
9723;DHT22;4900;49.306;8.500;2023-07-28T03:23:06;20.79;76.55
9723;DHT22;4900;49.306;8.500;2023-07-28T03:25:32;20.78;76.62
9723;DHT22;4900;49.306;8.500;2023-07-28T03:27:57;20.78;76.63
9723;DHT22;4900;49.306;8.500;2023-07-28T03:30:22;20.75;76.70
9723;DHT22;4900;49.306;8.500;2023-07-28T03:32:48;20.75;76.93
9723;DHT22;4900;49.306;8.500;2023-07-28T03:35:13;20.75;76.95
9723;DHT22;4900;49.306;8.500;2023-07-28T03:37:39;20.69;77.12
9723;DHT22;4900;49.306;8.500;2023-07-28T03:40:06;20.65;77.42
9723;DHT22;4900;49.306;8.500;2023-07-28T03:42:31;20.69;77.38
9723;DHT22;4900;49.306;8.500;2023-07-28T03:44:57;20.69;77.36
9723;DHT22;4900;49.306;8.500;2023-07-28T03:47:23;20.71;77.30
9723;DHT22;4900;49.306;8.500;2023-07-28T03:49:49;20.67;77.52
9723;DHT22;4900;49.306;8.500;2023-07-28T03:52:14;20.65;77.59
9723;DHT22;4900;49.306;8.500;2023-07-28T03:54:40;20.67;77.52
9723;DHT22;4900;49.306;8.500;2023-07-28T03:57:05;20.68;77.49
9723;DHT22;4900;49.306;8.500;2023-07-28T03:59:31;20.65;77.55
9723;DHT22;4900;49.306;8.500;2023-07-28T04:01:56;20.58;77.94
9723;DHT22;4900;49.306;8.500;2023-07-28T04:04:22;20.57;78.16
9723;DHT22;4900;49.306;8.500;2023-07-28T04:06:48;20.52;78.48
9723;DHT22;4900;49.306;8.500;2023-07-28T04:09:19;20.48;78.65
9723;DHT22;4900;49.306;8.500;2023-07-28T04:11:45;20.48;78.80
9723;DHT22;4900;49.306;8.500;2023-07-28T04:14:10;20.47;79.03
9723;DHT22;4900;49.306;8.500;2023-07-28T04:16:36;20.45;79.16
9723;DHT22;4900;49.306;8.500;2023-07-28T04:19:01;20.45;79.31
9723;DHT22;4900;49.306;8.500;2023-07-28T04:21:27;20.45;79.38
9723;DHT22;4900;49.306;8.500;2023-07-28T04:23:52;20.45;79.36
9723;DHT22;4900;49.306;8.500;2023-07-28T04:26:18;20.44;79.55
9723;DHT22;4900;49.306;8.500;2023-07-28T04:28:44;20.47;79.51
9723;DHT22;4900;49.306;8.500;2023-07-28T04:31:10;20.38;79.65
9723;DHT22;4900;49.306;8.500;2023-07-28T04:33:35;20.38;79.90
9723;DHT22;4900;49.306;8.500;2023-07-28T04:36:04;20.40;79.94
9723;DHT22;4900;49.306;8.500;2023-07-28T04:38:30;20.37;80.07
9723;DHT22;4900;49.306;8.500;2023-07-28T04:40:55;20.38;80.01
9723;DHT22;4900;49.306;8.500;2023-07-28T04:43:20;20.27;80.37
9723;DHT22;4900;49.306;8.500;2023-07-28T04:45:46;20.33;80.19
9723;DHT22;4900;49.306;8.500;2023-07-28T04:48:11;20.31;80.39
9723;DHT22;4900;49.306;8.500;2023-07-28T04:50:37;20.31;80.45
9723;DHT22;4900;49.306;8.500;2023-07-28T04:53:03;20.27;80.73
9723;DHT22;4900;49.306;8.500;2023-07-28T04:55:28;20.27;80.96
9723;DHT22;4900;49.306;8.500;2023-07-28T04:57:54;20.29;81.12
9723;DHT22;4900;49.306;8.500;2023-07-28T05:00:20;20.23;81.36
9723;DHT22;4900;49.306;8.500;2023-07-28T05:02:46;20.16;81.70
9723;DHT22;4900;49.306;8.500;2023-07-28T05:05:11;20.21;81.70
9723;DHT22;4900;49.306;8.500;2023-07-28T05:07:36;20.14;81.93
9723;DHT22;4900;49.306;8.500;2023-07-28T05:10:02;20.21;81.70
9723;DHT22;4900;49.306;8.500;2023-07-28T05:12:28;20.23;81.65
9723;DHT22;4900;49.306;8.500;2023-07-28T05:14:53;20.23;81.57
9723;DHT22;4900;49.306;8.500;2023-07-28T05:17:19;20.23;81.65
9723;DHT22;4900;49.306;8.500;2023-07-28T05:19:44;20.26;81.56
9723;DHT22;4900;49.306;8.500;2023-07-28T05:22:09;20.23;81.57
9723;DHT22;4900;49.306;8.500;2023-07-28T05:24:35;20.30;81.44
9723;DHT22;4900;49.306;8.500;2023-07-28T05:27:00;20.34;81.18
9723;DHT22;4900;49.306;8.500;2023-07-28T05:29:26;20.40;81.02
9723;DHT22;4900;49.306;8.500;2023-07-28T05:31:51;20.44;80.90
9723;DHT22;4900;49.306;8.500;2023-07-28T05:34:17;20.51;80.62
9723;DHT22;4900;49.306;8.500;2023-07-28T05:36:43;20.49;80.56
9723;DHT22;4900;49.306;8.500;2023-07-28T05:39:09;20.55;80.42
9723;DHT22;4900;49.306;8.500;2023-07-28T05:41:36;20.64;80.09
9723;DHT22;4900;49.306;8.500;2023-07-28T05:44:02;20.71;79.90
9723;DHT22;4900;49.306;8.500;2023-07-28T05:46:28;20.76;79.71
9723;DHT22;4900;49.306;8.500;2023-07-28T05:48:54;20.75;79.64
9723;DHT22;4900;49.306;8.500;2023-07-28T05:51:20;20.76;79.68
9723;DHT22;4900;49.306;8.500;2023-07-28T05:53:46;20.83;79.61
9723;DHT22;4900;49.306;8.500;2023-07-28T05:56:12;20.86;79.63
9723;DHT22;4900;49.306;8.500;2023-07-28T05:58:38;20.89;79.55
9723;DHT22;4900;49.306;8.500;2023-07-28T06:01:03;20.91;79.48
9723;DHT22;4900;49.306;8.500;2023-07-28T06:03:29;20.93;79.46
9723;DHT22;4900;49.306;8.500;2023-07-28T06:05:54;20.99;79.46
9723;DHT22;4900;49.306;8.500;2023-07-28T06:08:20;21.07;79.22
9723;DHT22;4900;49.306;8.500;2023-07-28T06:10:45;21.14;79.01
9723;DHT22;4900;49.306;8.500;2023-07-28T06:13:10;21.14;79.10
9723;DHT22;4900;49.306;8.500;2023-07-28T06:15:39;21.21;78.98
9723;DHT22;4900;49.306;8.500;2023-07-28T06:18:04;21.31;78.90
9723;DHT22;4900;49.306;8.500;2023-07-28T06:20:30;21.46;78.65
9723;DHT22;4900;49.306;8.500;2023-07-28T06:22:55;21.54;78.29
9723;DHT22;4900;49.306;8.500;2023-07-28T06:25:21;21.66;78.00
9723;DHT22;4900;49.306;8.500;2023-07-28T06:27:47;21.75;77.74
9723;DHT22;4900;49.306;8.500;2023-07-28T06:30:13;21.82;77.45
9723;DHT22;4900;49.306;8.500;2023-07-28T06:32:38;21.89;77.20
9723;DHT22;4900;49.306;8.500;2023-07-28T06:35:04;21.91;77.13
9723;DHT22;4900;49.306;8.500;2023-07-28T06:37:32;21.98;77.01
9723;DHT22;4900;49.306;8.500;2023-07-28T06:39:57;22.05;76.84
9723;DHT22;4900;49.306;8.500;2023-07-28T06:42:23;22.13;76.60
9723;DHT22;4900;49.306;8.500;2023-07-28T06:44:50;22.21;76.45
9723;DHT22;4900;49.306;8.500;2023-07-28T06:47:16;22.31;76.26
9723;DHT22;4900;49.306;8.500;2023-07-28T06:49:42;22.43;75.91
9723;DHT22;4900;49.306;8.500;2023-07-28T06:52:07;22.48;75.83
9723;DHT22;4900;49.306;8.500;2023-07-28T06:54:34;22.57;75.58
9723;DHT22;4900;49.306;8.500;2023-07-28T06:56:59;22.57;75.55
9723;DHT22;4900;49.306;8.500;2023-07-28T06:59:25;22.65;75.38
9723;DHT22;4900;49.306;8.500;2023-07-28T07:01:50;22.69;75.19
9723;DHT22;4900;49.306;8.500;2023-07-28T07:04:16;22.81;75.02
9723;DHT22;4900;49.306;8.500;2023-07-28T07:06:42;22.86;74.65
9723;DHT22;4900;49.306;8.500;2023-07-28T07:09:07;22.98;74.43
9723;DHT22;4900;49.306;8.500;2023-07-28T07:11:33;22.98;74.21
9723;DHT22;4900;49.306;8.500;2023-07-28T07:13:58;22.93;74.11
9723;DHT22;4900;49.306;8.500;2023-07-28T07:16:24;22.95;74.15
9723;DHT22;4900;49.306;8.500;2023-07-28T07:18:51;22.98;74.04
9723;DHT22;4900;49.306;8.500;2023-07-28T07:21:17;22.96;74.04
9723;DHT22;4900;49.306;8.500;2023-07-28T07:23:42;22.99;73.87
9723;DHT22;4900;49.306;8.500;2023-07-28T07:26:08;23.03;73.78
9723;DHT22;4900;49.306;8.500;2023-07-28T07:28:33;23.02;73.95
9723;DHT22;4900;49.306;8.500;2023-07-28T07:31:01;22.98;73.90
9723;DHT22;4900;49.306;8.500;2023-07-28T07:33:26;22.86;74.09
9723;DHT22;4900;49.306;8.500;2023-07-28T07:35:53;22.96;73.78
9723;DHT22;4900;49.306;8.500;2023-07-28T07:38:18;23.10;73.36
9723;DHT22;4900;49.306;8.500;2023-07-28T07:40:47;23.26;73.13
9723;DHT22;4900;49.306;8.500;2023-07-28T07:43:13;23.41;72.60
9723;DHT22;4900;49.306;8.500;2023-07-28T07:45:44;23.45;72.37
9723;DHT22;4900;49.306;8.500;2023-07-28T07:48:11;23.50;72.21
9723;DHT22;4900;49.306;8.500;2023-07-28T07:50:36;23.47;72.22
9723;DHT22;4900;49.306;8.500;2023-07-28T07:53:02;23.44;72.27
9723;DHT22;4900;49.306;8.500;2023-07-28T07:55:27;23.54;72.09
9723;DHT22;4900;49.306;8.500;2023-07-28T07:57:53;23.64;71.81
9723;DHT22;4900;49.306;8.500;2023-07-28T08:00:18;23.77;71.51
9723;DHT22;4900;49.306;8.500;2023-07-28T08:02:44;23.89;71.14
9723;DHT22;4900;49.306;8.500;2023-07-28T08:05:09;23.90;70.97
9723;DHT22;4900;49.306;8.500;2023-07-28T08:07:35;24.09;70.43
9723;DHT22;4900;49.306;8.500;2023-07-28T08:10:01;24.16;70.16
9723;DHT22;4900;49.306;8.500;2023-07-28T08:12:26;24.33;69.56
9723;DHT22;4900;49.306;8.500;2023-07-28T08:14:53;24.55;69.01
9723;DHT22;4900;49.306;8.500;2023-07-28T08:17:19;24.92;68.42
9723;DHT22;4900;49.306;8.500;2023-07-28T08:19:44;25.19;67.69
9723;DHT22;4900;49.306;8.500;2023-07-28T08:22:10;25.54;66.55
9723;DHT22;4900;49.306;8.500;2023-07-28T08:24:36;26.00;65.48
9723;DHT22;4900;49.306;8.500;2023-07-28T08:27:02;26.22;64.77
9723;DHT22;4900;49.306;8.500;2023-07-28T08:29:27;26.39;64.08
9723;DHT22;4900;49.306;8.500;2023-07-28T08:31:53;26.45;63.76
9723;DHT22;4900;49.306;8.500;2023-07-28T08:34:18;26.65;63.26
9723;DHT22;4900;49.306;8.500;2023-07-28T08:36:44;26.75;62.68
9723;DHT22;4900;49.306;8.500;2023-07-28T08:39:09;26.59;62.70
9723;DHT22;4900;49.306;8.500;2023-07-28T08:41:35;26.72;62.32
9723;DHT22;4900;49.306;8.500;2023-07-28T08:44:01;26.85;61.97
9723;DHT22;4900;49.306;8.500;2023-07-28T08:46:26;26.84;61.89
9723;DHT22;4900;49.306;8.500;2023-07-28T08:48:52;26.78;62.02
9723;DHT22;4900;49.306;8.500;2023-07-28T08:51:18;26.88;62.00
9723;DHT22;4900;49.306;8.500;2023-07-28T08:53:43;26.91;61.68
9723;DHT22;4900;49.306;8.500;2023-07-28T08:56:09;26.88;61.89
9723;DHT22;4900;49.306;8.500;2023-07-28T08:58:34;26.67;62.18
9723;DHT22;4900;49.306;8.500;2023-07-28T09:01:00;26.82;61.90
9723;DHT22;4900;49.306;8.500;2023-07-28T09:03:28;26.78;61.75
9723;DHT22;4900;49.306;8.500;2023-07-28T09:06:01;26.89;61.19
9723;DHT22;4900;49.306;8.500;2023-07-28T09:08:27;26.95;61.10
9723;DHT22;4900;49.306;8.500;2023-07-28T09:10:53;27.47;60.04
9723;DHT22;4900;49.306;8.500;2023-07-28T09:13:19;27.85;58.86
9723;DHT22;4900;49.306;8.500;2023-07-28T09:15:46;27.95;58.17
9723;DHT22;4900;49.306;8.500;2023-07-28T09:18:14;28.40;57.18
9723;DHT22;4900;49.306;8.500;2023-07-28T09:20:41;28.76;56.36
9723;DHT22;4900;49.306;8.500;2023-07-28T09:23:07;29.41;54.38
9723;DHT22;4900;49.306;8.500;2023-07-28T09:25:34;29.72;54.36
9723;DHT22;4900;49.306;8.500;2023-07-28T09:28:00;29.66;53.95
9723;DHT22;4900;49.306;8.500;2023-07-28T09:30:26;29.62;53.84
9723;DHT22;4900;49.306;8.500;2023-07-28T09:32:55;29.38;54.10
9723;DHT22;4900;49.306;8.500;2023-07-28T09:35:22;29.02;54.47
9723;DHT22;4900;49.306;8.500;2023-07-28T09:37:50;28.55;55.76
9723;DHT22;4900;49.306;8.500;2023-07-28T09:40:22;28.67;55.84
9723;DHT22;4900;49.306;8.500;2023-07-28T09:42:49;28.55;56.41
9723;DHT22;4900;49.306;8.500;2023-07-28T09:45:16;28.75;56.64
9723;DHT22;4900;49.306;8.500;2023-07-28T09:47:44;28.71;56.93
9723;DHT22;4900;49.306;8.500;2023-07-28T09:50:11;28.65;57.07
9723;DHT22;4900;49.306;8.500;2023-07-28T09:52:43;28.64;56.72
9723;DHT22;4900;49.306;8.500;2023-07-28T09:55:11;28.83;56.28
9723;DHT22;4900;49.306;8.500;2023-07-28T09:58:00;29.58;54.92
9723;DHT22;4900;49.306;8.500;2023-07-28T10:00:29;30.10;53.99
9723;DHT22;4900;49.306;8.500;2023-07-28T10:02:56;30.38;52.94
9723;DHT22;4900;49.306;8.500;2023-07-28T10:05:23;30.54;51.81
9723;DHT22;4900;49.306;8.500;2023-07-28T10:07:50;30.68;51.46
9723;DHT22;4900;49.306;8.500;2023-07-28T10:10:15;30.27;51.66
9723;DHT22;4900;49.306;8.500;2023-07-28T10:12:47;30.13;52.36
9723;DHT22;4900;49.306;8.500;2023-07-28T10:15:18;29.92;52.71
9723;DHT22;4900;49.306;8.500;2023-07-28T10:17:45;29.81;52.80
9723;DHT22;4900;49.306;8.500;2023-07-28T10:20:32;29.86;52.81
9723;DHT22;4900;49.306;8.500;2023-07-28T10:23:20;29.92;52.96
9723;DHT22;4900;49.306;8.500;2023-07-28T10:25:45;29.98;52.94
9723;DHT22;4900;49.306;8.500;2023-07-28T10:28:34;29.66;53.24
9723;DHT22;4900;49.306;8.500;2023-07-28T10:31:01;29.69;53.54
9723;DHT22;4900;49.306;8.500;2023-07-28T10:33:34;29.69;53.45
9723;DHT22;4900;49.306;8.500;2023-07-28T10:36:15;29.86;53.04
9723;DHT22;4900;49.306;8.500;2023-07-28T10:38:41;29.79;53.40
9723;DHT22;4900;49.306;8.500;2023-07-28T10:41:16;29.82;53.13
9723;DHT22;4900;49.306;8.500;2023-07-28T10:43:43;29.90;52.66
9723;DHT22;4900;49.306;8.500;2023-07-28T10:46:11;29.76;52.62
9723;DHT22;4900;49.306;8.500;2023-07-28T10:48:42;29.73;52.69
9723;DHT22;4900;49.306;8.500;2023-07-28T10:51:09;29.48;53.14
9723;DHT22;4900;49.306;8.500;2023-07-28T10:53:35;29.34;53.54
9723;DHT22;4900;49.306;8.500;2023-07-28T10:56:02;29.50;53.34
9723;DHT22;4900;49.306;8.500;2023-07-28T10:58:31;29.48;53.31
9723;DHT22;4900;49.306;8.500;2023-07-28T11:00:56;29.40;53.59
9723;DHT22;4900;49.306;8.500;2023-07-28T11:03:22;29.10;54.22
9723;DHT22;4900;49.306;8.500;2023-07-28T11:05:48;28.86;54.46
9723;DHT22;4900;49.306;8.500;2023-07-28T11:08:14;28.45;55.14
9723;DHT22;4900;49.306;8.500;2023-07-28T11:10:40;28.02;56.21
9723;DHT22;4900;49.306;8.500;2023-07-28T11:13:06;27.68;57.20
9723;DHT22;4900;49.306;8.500;2023-07-28T11:15:32;27.40;57.80
9723;DHT22;4900;49.306;8.500;2023-07-28T11:17:58;27.48;57.72
9723;DHT22;4900;49.306;8.500;2023-07-28T11:20:26;27.68;57.31
9723;DHT22;4900;49.306;8.500;2023-07-28T11:23:00;27.74;57.36
9723;DHT22;4900;49.306;8.500;2023-07-28T11:25:28;28.02;56.71
9723;DHT22;4900;49.306;8.500;2023-07-28T11:27:54;28.27;56.23
9723;DHT22;4900;49.306;8.500;2023-07-28T11:30:21;28.41;56.01
9723;DHT22;4900;49.306;8.500;2023-07-28T11:32:49;28.45;56.03
9723;DHT22;4900;49.306;8.500;2023-07-28T11:35:18;28.44;56.19
9723;DHT22;4900;49.306;8.500;2023-07-28T11:37:46;28.37;56.69
9723;DHT22;4900;49.306;8.500;2023-07-28T11:40:15;28.24;57.00
9723;DHT22;4900;49.306;8.500;2023-07-28T11:42:45;28.26;56.94
9723;DHT22;4900;49.306;8.500;2023-07-28T11:45:12;28.26;56.99
9723;DHT22;4900;49.306;8.500;2023-07-28T11:47:38;28.55;56.39
9723;DHT22;4900;49.306;8.500;2023-07-28T11:50:03;28.57;56.34
9723;DHT22;4900;49.306;8.500;2023-07-28T11:52:36;28.52;56.18
9723;DHT22;4900;49.306;8.500;2023-07-28T11:55:05;28.51;56.12
9723;DHT22;4900;49.306;8.500;2023-07-28T11:57:32;28.37;56.41
9723;DHT22;4900;49.306;8.500;2023-07-28T11:59:59;28.20;56.98
9723;DHT22;4900;49.306;8.500;2023-07-28T12:02:28;27.75;58.48
9723;DHT22;4900;49.306;8.500;2023-07-28T12:04:55;27.41;59.63
9723;DHT22;4900;49.306;8.500;2023-07-28T12:07:30;27.20;60.19
9723;DHT22;4900;49.306;8.500;2023-07-28T12:09:57;27.00;61.02
9723;DHT22;4900;49.306;8.500;2023-07-28T12:12:28;26.75;61.67
9723;DHT22;4900;49.306;8.500;2023-07-28T12:14:55;26.65;61.96
9723;DHT22;4900;49.306;8.500;2023-07-28T12:17:22;26.44;62.70
9723;DHT22;4900;49.306;8.500;2023-07-28T12:19:59;26.33;63.07
9723;DHT22;4900;49.306;8.500;2023-07-28T12:22:26;26.29;63.31
9723;DHT22;4900;49.306;8.500;2023-07-28T12:24:52;26.22;63.45
9723;DHT22;4900;49.306;8.500;2023-07-28T12:27:18;26.07;64.02
9723;DHT22;4900;49.306;8.500;2023-07-28T12:29:46;25.77;64.73
9723;DHT22;4900;49.306;8.500;2023-07-28T12:32:11;25.75;64.48
9723;DHT22;4900;49.306;8.500;2023-07-28T12:34:37;25.65;64.73
9723;DHT22;4900;49.306;8.500;2023-07-28T12:37:03;25.69;64.68
9723;DHT22;4900;49.306;8.500;2023-07-28T12:39:29;25.55;65.24
9723;DHT22;4900;49.306;8.500;2023-07-28T12:41:54;25.53;65.56
9723;DHT22;4900;49.306;8.500;2023-07-28T12:44:20;25.50;65.81
9723;DHT22;4900;49.306;8.500;2023-07-28T12:46:46;25.40;66.26
9723;DHT22;4900;49.306;8.500;2023-07-28T12:49:11;25.31;66.57
9723;DHT22;4900;49.306;8.500;2023-07-28T12:51:37;25.28;66.61
9723;DHT22;4900;49.306;8.500;2023-07-28T12:54:02;25.27;66.75
9723;DHT22;4900;49.306;8.500;2023-07-28T12:56:28;25.34;66.61
9723;DHT22;4900;49.306;8.500;2023-07-28T12:58:53;25.35;66.50
9723;DHT22;4900;49.306;8.500;2023-07-28T13:01:19;25.33;66.56
9723;DHT22;4900;49.306;8.500;2023-07-28T13:03:44;25.37;66.53
9723;DHT22;4900;49.306;8.500;2023-07-28T13:06:10;25.28;67.04
9723;DHT22;4900;49.306;8.500;2023-07-28T13:08:35;25.17;67.36
9723;DHT22;4900;49.306;8.500;2023-07-28T13:11:01;25.20;67.30
9723;DHT22;4900;49.306;8.500;2023-07-28T13:13:26;25.13;67.52
9723;DHT22;4900;49.306;8.500;2023-07-28T13:15:55;25.20;67.42
9723;DHT22;4900;49.306;8.500;2023-07-28T13:18:20;25.23;67.51
9723;DHT22;4900;49.306;8.500;2023-07-28T13:20:46;25.33;67.25
9723;DHT22;4900;49.306;8.500;2023-07-28T13:23:11;25.30;67.29
9723;DHT22;4900;49.306;8.500;2023-07-28T13:25:36;25.30;67.46
9723;DHT22;4900;49.306;8.500;2023-07-28T13:28:02;25.31;67.51
9723;DHT22;4900;49.306;8.500;2023-07-28T13:30:27;25.34;67.47
9723;DHT22;4900;49.306;8.500;2023-07-28T13:32:53;25.31;67.82
9723;DHT22;4900;49.306;8.500;2023-07-28T13:35:18;25.26;67.95
9723;DHT22;4900;49.306;8.500;2023-07-28T13:37:44;25.14;68.32
9723;DHT22;4900;49.306;8.500;2023-07-28T13:40:10;25.05;68.38
9723;DHT22;4900;49.306;8.500;2023-07-28T13:42:35;25.03;68.44
9723;DHT22;4900;49.306;8.500;2023-07-28T13:45:01;24.99;68.56
9723;DHT22;4900;49.306;8.500;2023-07-28T13:47:26;24.79;69.20
9723;DHT22;4900;49.306;8.500;2023-07-28T13:49:52;24.76;69.30
9723;DHT22;4900;49.306;8.500;2023-07-28T13:52:17;24.73;69.26
9723;DHT22;4900;49.306;8.500;2023-07-28T13:54:43;24.65;69.47
9723;DHT22;4900;49.306;8.500;2023-07-28T13:57:10;24.71;69.21
9723;DHT22;4900;49.306;8.500;2023-07-28T13:59:36;24.67;69.42
9723;DHT22;4900;49.306;8.500;2023-07-28T14:02:01;24.75;69.26
9723;DHT22;4900;49.306;8.500;2023-07-28T14:04:27;24.79;69.05
9723;DHT22;4900;49.306;8.500;2023-07-28T14:06:52;24.86;69.05
9723;DHT22;4900;49.306;8.500;2023-07-28T14:09:18;24.88;69.02
9723;DHT22;4900;49.306;8.500;2023-07-28T14:11:43;24.95;68.88
9723;DHT22;4900;49.306;8.500;2023-07-28T14:14:09;24.92;69.11
9723;DHT22;4900;49.306;8.500;2023-07-28T14:16:34;24.96;69.18
9723;DHT22;4900;49.306;8.500;2023-07-28T14:18:59;24.95;69.15
9723;DHT22;4900;49.306;8.500;2023-07-28T14:21:25;24.98;69.12
9723;DHT22;4900;49.306;8.500;2023-07-28T14:23:50;24.99;69.16
9723;DHT22;4900;49.306;8.500;2023-07-28T14:26:16;25.10;68.84
9723;DHT22;4900;49.306;8.500;2023-07-28T14:28:43;25.20;68.79
9723;DHT22;4900;49.306;8.500;2023-07-28T14:31:08;25.20;68.91
9723;DHT22;4900;49.306;8.500;2023-07-28T14:33:34;25.17;68.84
9723;DHT22;4900;49.306;8.500;2023-07-28T14:35:59;25.12;68.79
9723;DHT22;4900;49.306;8.500;2023-07-28T14:38:24;25.13;68.67
9723;DHT22;4900;49.306;8.500;2023-07-28T14:40:50;25.23;68.46
9723;DHT22;4900;49.306;8.500;2023-07-28T14:43:17;25.19;68.63
9723;DHT22;4900;49.306;8.500;2023-07-28T14:45:43;25.30;68.43
9723;DHT22;4900;49.306;8.500;2023-07-28T14:48:09;25.19;68.58
9723;DHT22;4900;49.306;8.500;2023-07-28T14:50:34;25.22;68.70
9723;DHT22;4900;49.306;8.500;2023-07-28T14:53:00;25.16;68.95
9723;DHT22;4900;49.306;8.500;2023-07-28T14:55:26;25.20;68.97
9723;DHT22;4900;49.306;8.500;2023-07-28T14:57:52;25.19;69.05
9723;DHT22;4900;49.306;8.500;2023-07-28T15:00:18;25.20;69.07
9723;DHT22;4900;49.306;8.500;2023-07-28T15:02:43;25.12;69.26
9723;DHT22;4900;49.306;8.500;2023-07-28T15:05:09;25.13;69.12
9723;DHT22;4900;49.306;8.500;2023-07-28T15:07:35;25.07;69.20
9723;DHT22;4900;49.306;8.500;2023-07-28T15:10:02;25.00;69.40
9723;DHT22;4900;49.306;8.500;2023-07-28T15:12:27;24.95;69.46
9723;DHT22;4900;49.306;8.500;2023-07-28T15:14:53;24.85;69.66
9723;DHT22;4900;49.306;8.500;2023-07-28T15:17:18;24.76;69.98
9723;DHT22;4900;49.306;8.500;2023-07-28T15:19:44;24.79;69.88
9723;DHT22;4900;49.306;8.500;2023-07-28T15:22:10;24.75;70.17
9723;DHT22;4900;49.306;8.500;2023-07-28T15:24:35;24.72;70.25
9723;DHT22;4900;49.306;8.500;2023-07-28T15:27:00;24.68;70.50
9723;DHT22;4900;49.306;8.500;2023-07-28T15:29:26;24.71;70.46
9723;DHT22;4900;49.306;8.500;2023-07-28T15:31:51;24.64;70.77
9723;DHT22;4900;49.306;8.500;2023-07-28T15:34:19;24.57;70.95
9723;DHT22;4900;49.306;8.500;2023-07-28T15:36:44;24.55;71.06
9723;DHT22;4900;49.306;8.500;2023-07-28T15:39:12;24.48;71.13
9723;DHT22;4900;49.306;8.500;2023-07-28T15:41:38;24.43;71.36
9723;DHT22;4900;49.306;8.500;2023-07-28T15:44:04;24.43;71.30
9723;DHT22;4900;49.306;8.500;2023-07-28T15:46:29;24.36;71.45
9723;DHT22;4900;49.306;8.500;2023-07-28T15:48:55;24.32;71.59
9723;DHT22;4900;49.306;8.500;2023-07-28T15:51:20;24.21;71.86
9723;DHT22;4900;49.306;8.500;2023-07-28T15:53:45;24.16;72.06
9723;DHT22;4900;49.306;8.500;2023-07-28T15:56:11;24.03;72.64
9723;DHT22;4900;49.306;8.500;2023-07-28T15:58:36;23.95;72.87